sensor_id;sensor_type;location;lat;lon;timestamp;P1;durP1;ratioP1;P2;durP2;ratioP2
46717;SDS011;32448;44.960;-0.698;2024-03-08T00:00:06;7.35;;;2.72;;
46717;SDS011;32448;44.960;-0.698;2024-03-08T00:02:41;9.63;;;3.00;;
46717;SDS011;32448;44.960;-0.698;2024-03-08T00:05:08;7.60;;;3.88;;
46717;SDS011;32448;44.960;-0.698;2024-03-08T00:07:36;14.90;;;6.30;;
46717;SDS011;32448;44.960;-0.698;2024-03-08T00:10:03;11.35;;;4.18;;
46717;SDS011;32448;44.960;-0.698;2024-03-08T00:12:31;11.23;;;3.75;;
46717;SDS011;32448;44.960;-0.698;2024-03-08T00:14:58;7.10;;;3.30;;
46717;SDS011;32448;44.960;-0.698;2024-03-08T00:17:25;8.95;;;3.08;;
46717;SDS011;32448;44.960;-0.698;2024-03-08T00:19:53;5.53;;;2.22;;
46717;SDS011;32448;44.960;-0.698;2024-03-08T00:22:20;6.03;;;2.33;;
46717;SDS011;32448;44.960;-0.698;2024-03-08T00:24:48;5.07;;;2.13;;
46717;SDS011;32448;44.960;-0.698;2024-03-08T00:27:17;4.13;;;2.00;;
46717;SDS011;32448;44.960;-0.698;2024-03-08T00:29:43;3.72;;;1.83;;
46717;SDS011;32448;44.960;-0.698;2024-03-08T00:32:11;3.47;;;1.80;;
46717;SDS011;32448;44.960;-0.698;2024-03-08T00:34:39;6.68;;;2.50;;
46717;SDS011;32448;44.960;-0.698;2024-03-08T00:37:06;5.70;;;2.33;;
46717;SDS011;32448;44.960;-0.698;2024-03-08T00:39:33;6.82;;;2.22;;
46717;SDS011;32448;44.960;-0.698;2024-03-08T00:41:59;6.85;;;1.85;;
46717;SDS011;32448;44.960;-0.698;2024-03-08T00:44:26;5.10;;;2.30;;
46717;SDS011;32448;44.960;-0.698;2024-03-08T00:46:53;5.15;;;2.13;;
46717;SDS011;32448;44.960;-0.698;2024-03-08T00:49:21;5.28;;;1.85;;
46717;SDS011;32448;44.960;-0.698;2024-03-08T00:51:49;4.88;;;1.83;;
46717;SDS011;32448;44.960;-0.698;2024-03-08T00:54:16;3.00;;;1.88;;
46717;SDS011;32448;44.960;-0.698;2024-03-08T00:56:43;4.05;;;1.88;;
46717;SDS011;32448;44.960;-0.698;2024-03-08T00:59:10;3.22;;;1.80;;
46717;SDS011;32448;44.960;-0.698;2024-03-08T01:01:36;5.88;;;2.20;;
46717;SDS011;32448;44.960;-0.698;2024-03-08T01:04:05;4.57;;;2.28;;
46717;SDS011;32448;44.960;-0.698;2024-03-08T01:06:35;7.00;;;2.22;;
46717;SDS011;32448;44.960;-0.698;2024-03-08T01:09:04;5.07;;;2.53;;
46717;SDS011;32448;44.960;-0.698;2024-03-08T01:11:34;5.80;;;2.25;;
46717;SDS011;32448;44.960;-0.698;2024-03-08T01:14:01;4.55;;;2.20;;
46717;SDS011;32448;44.960;-0.698;2024-03-08T01:16:28;4.07;;;2.15;;
46717;SDS011;32448;44.960;-0.698;2024-03-08T01:18:55;4.97;;;2.22;;
46717;SDS011;32448;44.960;-0.698;2024-03-08T01:21:22;7.10;;;2.35;;
46717;SDS011;32448;44.960;-0.698;2024-03-08T01:23:51;5.45;;;2.33;;
46717;SDS011;32448;44.960;-0.698;2024-03-08T01:26:18;3.70;;;2.13;;
46717;SDS011;32448;44.960;-0.698;2024-03-08T01:28:44;6.53;;;2.45;;
46717;SDS011;32448;44.960;-0.698;2024-03-08T01:31:11;4.90;;;2.20;;
46717;SDS011;32448;44.960;-0.698;2024-03-08T01:33:38;4.10;;;1.92;;
46717;SDS011;32448;44.960;-0.698;2024-03-08T01:36:05;4.63;;;2.13;;
46717;SDS011;32448;44.960;-0.698;2024-03-08T01:38:32;7.32;;;2.30;;
46717;SDS011;32448;44.960;-0.698;2024-03-08T01:41:00;5.03;;;2.10;;
46717;SDS011;32448;44.960;-0.698;2024-03-08T01:43:27;7.30;;;2.10;;
46717;SDS011;32448;44.960;-0.698;2024-03-08T01:45:57;3.95;;;1.95;;
46717;SDS011;32448;44.960;-0.698;2024-03-08T01:48:28;3.88;;;2.25;;
46717;SDS011;32448;44.960;-0.698;2024-03-08T01:50:56;3.75;;;1.90;;
46717;SDS011;32448;44.960;-0.698;2024-03-08T01:53:24;8.15;;;2.45;;
46717;SDS011;32448;44.960;-0.698;2024-03-08T01:55:52;6.65;;;2.30;;
46717;SDS011;32448;44.960;-0.698;2024-03-08T01:58:22;6.82;;;2.13;;
46717;SDS011;32448;44.960;-0.698;2024-03-08T02:00:49;5.68;;;2.50;;
46717;SDS011;32448;44.960;-0.698;2024-03-08T02:03:17;5.38;;;2.50;;
46717;SDS011;32448;44.960;-0.698;2024-03-08T02:05:44;7.10;;;2.60;;
46717;SDS011;32448;44.960;-0.698;2024-03-08T02:08:10;6.43;;;2.00;;
46717;SDS011;32448;44.960;-0.698;2024-03-08T02:10:41;3.60;;;1.80;;
46717;SDS011;32448;44.960;-0.698;2024-03-08T02:13:08;6.13;;;2.30;;
46717;SDS011;32448;44.960;-0.698;2024-03-08T02:18:27;4.47;;;2.05;;
46717;SDS011;32448;44.960;-0.698;2024-03-08T02:20:55;8.48;;;2.15;;
46717;SDS011;32448;44.960;-0.698;2024-03-08T02:23:24;6.55;;;2.10;;
46717;SDS011;32448;44.960;-0.698;2024-03-08T02:25:51;4.43;;;1.92;;
46717;SDS011;32448;44.960;-0.698;2024-03-08T02:28:19;6.43;;;2.00;;
46717;SDS011;32448;44.960;-0.698;2024-03-08T02:30:47;6.03;;;2.65;;
46717;SDS011;32448;44.960;-0.698;2024-03-08T02:33:14;4.68;;;1.90;;
46717;SDS011;32448;44.960;-0.698;2024-03-08T02:35:45;5.55;;;1.88;;
46717;SDS011;32448;44.960;-0.698;2024-03-08T02:38:13;7.25;;;2.20;;
46717;SDS011;32448;44.960;-0.698;2024-03-08T02:40:45;4.40;;;1.75;;
46717;SDS011;32448;44.960;-0.698;2024-03-08T02:43:14;4.97;;;1.90;;
46717;SDS011;32448;44.960;-0.698;2024-03-08T02:45:41;6.65;;;1.88;;
46717;SDS011;32448;44.960;-0.698;2024-03-08T02:48:08;5.72;;;2.13;;
46717;SDS011;32448;44.960;-0.698;2024-03-08T02:50:35;5.35;;;2.10;;
46717;SDS011;32448;44.960;-0.698;2024-03-08T02:53:03;3.50;;;2.10;;
46717;SDS011;32448;44.960;-0.698;2024-03-08T02:55:30;4.85;;;1.65;;
46717;SDS011;32448;44.960;-0.698;2024-03-08T02:57:57;4.57;;;2.13;;
46717;SDS011;32448;44.960;-0.698;2024-03-08T03:00:25;4.00;;;2.00;;
46717;SDS011;32448;44.960;-0.698;2024-03-08T03:02:53;3.60;;;1.73;;
46717;SDS011;32448;44.960;-0.698;2024-03-08T03:05:20;3.75;;;1.70;;
46717;SDS011;32448;44.960;-0.698;2024-03-08T03:07:47;3.80;;;2.08;;
46717;SDS011;32448;44.960;-0.698;2024-03-08T03:10:18;3.50;;;1.73;;
46717;SDS011;32448;44.960;-0.698;2024-03-08T03:12:45;3.38;;;1.70;;
46717;SDS011;32448;44.960;-0.698;2024-03-08T03:15:12;8.20;;;2.10;;
46717;SDS011;32448;44.960;-0.698;2024-03-08T03:17:40;4.60;;;2.08;;
46717;SDS011;32448;44.960;-0.698;2024-03-08T03:20:07;7.60;;;1.95;;
46717;SDS011;32448;44.960;-0.698;2024-03-08T03:22:40;5.22;;;1.83;;
46717;SDS011;32448;44.960;-0.698;2024-03-08T03:25:08;4.60;;;2.10;;
46717;SDS011;32448;44.960;-0.698;2024-03-08T03:27:39;2.22;;;1.35;;
46717;SDS011;32448;44.960;-0.698;2024-03-08T03:30:06;4.85;;;1.70;;
46717;SDS011;32448;44.960;-0.698;2024-03-08T03:32:48;5.03;;;1.80;;
46717;SDS011;32448;44.960;-0.698;2024-03-08T03:35:16;3.17;;;1.98;;
46717;SDS011;32448;44.960;-0.698;2024-03-08T03:37:44;5.10;;;2.10;;
46717;SDS011;32448;44.960;-0.698;2024-03-08T03:40:17;6.35;;;2.10;;
46717;SDS011;32448;44.960;-0.698;2024-03-08T03:42:47;8.65;;;2.35;;
46717;SDS011;32448;44.960;-0.698;2024-03-08T03:45:13;5.03;;;2.00;;
46717;SDS011;32448;44.960;-0.698;2024-03-08T03:47:42;3.47;;;1.83;;
46717;SDS011;32448;44.960;-0.698;2024-03-08T03:50:09;4.78;;;2.17;;
46717;SDS011;32448;44.960;-0.698;2024-03-08T03:52:36;8.55;;;2.50;;
46717;SDS011;32448;44.960;-0.698;2024-03-08T03:55:04;7.07;;;2.13;;
46717;SDS011;32448;44.960;-0.698;2024-03-08T03:57:31;4.85;;;2.35;;
46717;SDS011;32448;44.960;-0.698;2024-03-08T03:59:58;6.72;;;2.33;;
46717;SDS011;32448;44.960;-0.698;2024-03-08T04:02:25;6.90;;;2.13;;
46717;SDS011;32448;44.960;-0.698;2024-03-08T04:04:53;5.95;;;2.30;;
46717;SDS011;32448;44.960;-0.698;2024-03-08T04:07:21;3.58;;;1.88;;
46717;SDS011;32448;44.960;-0.698;2024-03-08T04:09:47;3.42;;;1.77;;
46717;SDS011;32448;44.960;-0.698;2024-03-08T04:12:14;3.88;;;1.83;;
46717;SDS011;32448;44.960;-0.698;2024-03-08T04:14:42;4.15;;;1.95;;
46717;SDS011;32448;44.960;-0.698;2024-03-08T04:17:09;3.30;;;1.98;;
46717;SDS011;32448;44.960;-0.698;2024-03-08T04:19:36;4.32;;;1.80;;
46717;SDS011;32448;44.960;-0.698;2024-03-08T04:22:02;4.10;;;1.70;;
46717;SDS011;32448;44.960;-0.698;2024-03-08T04:24:29;4.82;;;1.70;;
46717;SDS011;32448;44.960;-0.698;2024-03-08T04:26:57;7.13;;;2.13;;
46717;SDS011;32448;44.960;-0.698;2024-03-08T04:29:25;6.57;;;2.45;;
46717;SDS011;32448;44.960;-0.698;2024-03-08T04:31:53;4.15;;;1.98;;
46717;SDS011;32448;44.960;-0.698;2024-03-08T04:34:22;5.15;;;1.73;;
46717;SDS011;32448;44.960;-0.698;2024-03-08T04:36:49;6.30;;;2.35;;
46717;SDS011;32448;44.960;-0.698;2024-03-08T04:39:16;4.13;;;2.00;;
46717;SDS011;32448;44.960;-0.698;2024-03-08T04:41:45;5.75;;;2.05;;
46717;SDS011;32448;44.960;-0.698;2024-03-08T04:44:12;5.40;;;2.08;;
46717;SDS011;32448;44.960;-0.698;2024-03-08T04:46:39;4.47;;;1.77;;
46717;SDS011;32448;44.960;-0.698;2024-03-08T04:49:06;4.18;;;1.90;;
46717;SDS011;32448;44.960;-0.698;2024-03-08T04:51:33;5.80;;;2.03;;
46717;SDS011;32448;44.960;-0.698;2024-03-08T04:54:00;6.38;;;1.90;;
46717;SDS011;32448;44.960;-0.698;2024-03-08T04:56:27;4.53;;;2.05;;
46717;SDS011;32448;44.960;-0.698;2024-03-08T04:58:54;4.55;;;1.73;;
46717;SDS011;32448;44.960;-0.698;2024-03-08T05:01:20;7.70;;;2.10;;
46717;SDS011;32448;44.960;-0.698;2024-03-08T05:03:48;6.53;;;2.00;;
46717;SDS011;32448;44.960;-0.698;2024-03-08T05:06:16;4.07;;;1.95;;
46717;SDS011;32448;44.960;-0.698;2024-03-08T05:08:43;6.15;;;1.90;;
46717;SDS011;32448;44.960;-0.698;2024-03-08T05:11:10;5.32;;;2.10;;
46717;SDS011;32448;44.960;-0.698;2024-03-08T05:13:37;5.40;;;2.40;;
46717;SDS011;32448;44.960;-0.698;2024-03-08T05:16:04;5.57;;;2.10;;
46717;SDS011;32448;44.960;-0.698;2024-03-08T05:18:30;10.20;;;4.68;;
46717;SDS011;32448;44.960;-0.698;2024-03-08T05:20:58;11.77;;;5.90;;
46717;SDS011;32448;44.960;-0.698;2024-03-08T05:23:25;9.05;;;5.00;;
46717;SDS011;32448;44.960;-0.698;2024-03-08T05:25:52;39.67;;;24.38;;
46717;SDS011;32448;44.960;-0.698;2024-03-08T05:28:19;44.40;;;27.80;;
46717;SDS011;32448;44.960;-0.698;2024-03-08T05:30:46;31.15;;;19.20;;
46717;SDS011;32448;44.960;-0.698;2024-03-08T05:33:13;16.95;;;9.77;;
46717;SDS011;32448;44.960;-0.698;2024-03-08T05:35:41;10.95;;;6.70;;
46717;SDS011;32448;44.960;-0.698;2024-03-08T05:38:08;5.38;;;3.05;;
46717;SDS011;32448;44.960;-0.698;2024-03-08T05:40:34;8.85;;;2.88;;
46717;SDS011;32448;44.960;-0.698;2024-03-08T05:43:01;8.75;;;2.65;;
46717;SDS011;32448;44.960;-0.698;2024-03-08T05:45:28;6.65;;;2.45;;
46717;SDS011;32448;44.960;-0.698;2024-03-08T05:47:55;5.03;;;1.90;;
46717;SDS011;32448;44.960;-0.698;2024-03-08T05:50:22;6.97;;;2.13;;
46717;SDS011;32448;44.960;-0.698;2024-03-08T05:52:49;6.32;;;2.20;;
46717;SDS011;32448;44.960;-0.698;2024-03-08T05:55:16;5.50;;;2.50;;
46717;SDS011;32448;44.960;-0.698;2024-03-08T05:57:43;7.05;;;2.47;;
46717;SDS011;32448;44.960;-0.698;2024-03-08T06:03:14;9.27;;;2.03;;
46717;SDS011;32448;44.960;-0.698;2024-03-08T06:05:41;4.07;;;1.85;;
46717;SDS011;32448;44.960;-0.698;2024-03-08T06:08:08;8.15;;;2.00;;
46717;SDS011;32448;44.960;-0.698;2024-03-08T06:10:35;6.10;;;1.90;;
46717;SDS011;32448;44.960;-0.698;2024-03-08T06:13:02;5.53;;;2.03;;
46717;SDS011;32448;44.960;-0.698;2024-03-08T06:15:29;7.32;;;2.33;;
46717;SDS011;32448;44.960;-0.698;2024-03-08T06:17:55;4.40;;;1.77;;
46717;SDS011;32448;44.960;-0.698;2024-03-08T06:20:22;4.82;;;1.67;;
46717;SDS011;32448;44.960;-0.698;2024-03-08T06:22:52;6.07;;;1.83;;
46717;SDS011;32448;44.960;-0.698;2024-03-08T06:25:20;6.25;;;2.13;;
46717;SDS011;32448;44.960;-0.698;2024-03-08T06:27:47;4.18;;;1.80;;
46717;SDS011;32448;44.960;-0.698;2024-03-08T06:30:14;4.50;;;1.98;;
46717;SDS011;32448;44.960;-0.698;2024-03-08T06:32:42;6.90;;;2.15;;
46717;SDS011;32448;44.960;-0.698;2024-03-08T06:35:10;5.47;;;2.17;;
46717;SDS011;32448;44.960;-0.698;2024-03-08T06:37:37;8.35;;;2.30;;
46717;SDS011;32448;44.960;-0.698;2024-03-08T06:40:05;7.18;;;2.10;;
46717;SDS011;32448;44.960;-0.698;2024-03-08T06:42:34;7.05;;;2.45;;
46717;SDS011;32448;44.960;-0.698;2024-03-08T06:45:01;5.70;;;2.00;;
46717;SDS011;32448;44.960;-0.698;2024-03-08T06:47:32;6.97;;;2.20;;
46717;SDS011;32448;44.960;-0.698;2024-03-08T06:50:00;5.22;;;2.10;;
46717;SDS011;32448;44.960;-0.698;2024-03-08T06:52:27;6.78;;;2.13;;
46717;SDS011;32448;44.960;-0.698;2024-03-08T06:54:53;8.30;;;2.17;;
46717;SDS011;32448;44.960;-0.698;2024-03-08T06:57:20;4.82;;;2.17;;
46717;SDS011;32448;44.960;-0.698;2024-03-08T06:59:48;7.18;;;2.55;;
46717;SDS011;32448;44.960;-0.698;2024-03-08T07:02:15;5.07;;;1.88;;
46717;SDS011;32448;44.960;-0.698;2024-03-08T07:04:42;6.55;;;2.30;;
46717;SDS011;32448;44.960;-0.698;2024-03-08T07:07:09;4.78;;;2.05;;
46717;SDS011;32448;44.960;-0.698;2024-03-08T07:09:36;5.40;;;2.33;;
46717;SDS011;32448;44.960;-0.698;2024-03-08T07:12:03;5.90;;;2.50;;
46717;SDS011;32448;44.960;-0.698;2024-03-08T07:14:30;5.55;;;2.22;;
46717;SDS011;32448;44.960;-0.698;2024-03-08T07:16:57;6.15;;;2.28;;
46717;SDS011;32448;44.960;-0.698;2024-03-08T07:19:24;7.22;;;2.15;;
46717;SDS011;32448;44.960;-0.698;2024-03-08T07:21:51;8.07;;;2.55;;
46717;SDS011;32448;44.960;-0.698;2024-03-08T07:24:18;7.40;;;2.33;;
46717;SDS011;32448;44.960;-0.698;2024-03-08T07:26:44;5.45;;;2.33;;
46717;SDS011;32448;44.960;-0.698;2024-03-08T07:29:16;6.57;;;2.45;;
46717;SDS011;32448;44.960;-0.698;2024-03-08T07:31:42;5.28;;;2.45;;
46717;SDS011;32448;44.960;-0.698;2024-03-08T07:34:28;5.85;;;2.72;;
46717;SDS011;32448;44.960;-0.698;2024-03-08T07:36:58;8.32;;;2.78;;
46717;SDS011;32448;44.960;-0.698;2024-03-08T07:39:25;10.63;;;3.58;;
46717;SDS011;32448;44.960;-0.698;2024-03-08T07:41:53;6.30;;;2.28;;
46717;SDS011;32448;44.960;-0.698;2024-03-08T07:44:19;6.53;;;2.33;;
46717;SDS011;32448;44.960;-0.698;2024-03-08T07:46:46;8.60;;;2.80;;
46717;SDS011;32448;44.960;-0.698;2024-03-08T07:49:13;8.38;;;2.80;;
46717;SDS011;32448;44.960;-0.698;2024-03-08T07:51:41;8.10;;;2.75;;
46717;SDS011;32448;44.960;-0.698;2024-03-08T07:54:11;7.57;;;2.45;;
46717;SDS011;32448;44.960;-0.698;2024-03-08T07:56:38;8.00;;;2.75;;
46717;SDS011;32448;44.960;-0.698;2024-03-08T07:59:06;5.20;;;2.60;;
46717;SDS011;32448;44.960;-0.698;2024-03-08T08:01:33;6.90;;;2.35;;
46717;SDS011;32448;44.960;-0.698;2024-03-08T08:04:00;6.18;;;2.40;;
46717;SDS011;32448;44.960;-0.698;2024-03-08T08:06:31;4.72;;;2.53;;
46717;SDS011;32448;44.960;-0.698;2024-03-08T08:09:01;6.60;;;2.90;;
46717;SDS011;32448;44.960;-0.698;2024-03-08T08:11:28;7.28;;;2.65;;
46717;SDS011;32448;44.960;-0.698;2024-03-08T08:13:59;5.10;;;2.42;;
46717;SDS011;32448;44.960;-0.698;2024-03-08T08:16:26;7.68;;;2.72;;
46717;SDS011;32448;44.960;-0.698;2024-03-08T08:18:53;5.60;;;2.92;;
46717;SDS011;32448;44.960;-0.698;2024-03-08T08:21:21;4.80;;;2.67;;
46717;SDS011;32448;44.960;-0.698;2024-03-08T08:23:48;4.97;;;2.72;;
46717;SDS011;32448;44.960;-0.698;2024-03-08T08:26:15;4.95;;;3.03;;
46717;SDS011;32448;44.960;-0.698;2024-03-08T08:28:42;8.85;;;3.40;;
46717;SDS011;32448;44.960;-0.698;2024-03-08T08:31:09;7.53;;;2.60;;
46717;SDS011;32448;44.960;-0.698;2024-03-08T08:33:36;9.15;;;3.55;;
46717;SDS011;32448;44.960;-0.698;2024-03-08T08:36:03;4.93;;;3.15;;
46717;SDS011;32448;44.960;-0.698;2024-03-08T08:38:32;9.27;;;3.45;;
46717;SDS011;32448;44.960;-0.698;2024-03-08T08:40:59;8.15;;;3.13;;
46717;SDS011;32448;44.960;-0.698;2024-03-08T08:43:26;9.43;;;2.92;;
46717;SDS011;32448;44.960;-0.698;2024-03-08T08:45:53;6.10;;;2.80;;
46717;SDS011;32448;44.960;-0.698;2024-03-08T08:48:21;8.52;;;3.08;;
46717;SDS011;32448;44.960;-0.698;2024-03-08T08:50:51;6.35;;;3.40;;
46717;SDS011;32448;44.960;-0.698;2024-03-08T08:53:22;6.63;;;3.05;;
46717;SDS011;32448;44.960;-0.698;2024-03-08T08:56:26;10.30;;;3.42;;
46717;SDS011;32448;44.960;-0.698;2024-03-08T08:59:31;5.22;;;3.30;;
46717;SDS011;32448;44.960;-0.698;2024-03-08T09:01:58;9.65;;;3.50;;
46717;SDS011;32448;44.960;-0.698;2024-03-08T09:04:26;6.90;;;3.10;;
46717;SDS011;32448;44.960;-0.698;2024-03-08T09:06:54;6.72;;;3.40;;
46717;SDS011;32448;44.960;-0.698;2024-03-08T09:09:23;8.60;;;2.80;;
46717;SDS011;32448;44.960;-0.698;2024-03-08T09:11:53;8.35;;;3.42;;
46717;SDS011;32448;44.960;-0.698;2024-03-08T09:14:21;7.72;;;3.13;;
46717;SDS011;32448;44.960;-0.698;2024-03-08T09:16:48;8.82;;;3.30;;
46717;SDS011;32448;44.960;-0.698;2024-03-08T09:19:15;6.80;;;4.38;;
46717;SDS011;32448;44.960;-0.698;2024-03-08T09:21:43;7.20;;;4.28;;
46717;SDS011;32448;44.960;-0.698;2024-03-08T09:24:10;7.88;;;4.22;;
46717;SDS011;32448;44.960;-0.698;2024-03-08T09:26:37;7.70;;;4.00;;
46717;SDS011;32448;44.960;-0.698;2024-03-08T09:29:04;7.75;;;4.30;;
46717;SDS011;32448;44.960;-0.698;2024-03-08T09:31:33;7.00;;;3.90;;
46717;SDS011;32448;44.960;-0.698;2024-03-08T09:34:03;7.55;;;3.95;;
46717;SDS011;32448;44.960;-0.698;2024-03-08T09:36:32;6.75;;;3.58;;
46717;SDS011;32448;44.960;-0.698;2024-03-08T09:38:59;7.47;;;3.42;;
46717;SDS011;32448;44.960;-0.698;2024-03-08T09:41:27;7.68;;;3.35;;
46717;SDS011;32448;44.960;-0.698;2024-03-08T09:43:54;3.88;;;2.88;;
46717;SDS011;32448;44.960;-0.698;2024-03-08T09:46:22;8.57;;;3.33;;
46717;SDS011;32448;44.960;-0.698;2024-03-08T09:48:49;5.60;;;3.13;;
46717;SDS011;32448;44.960;-0.698;2024-03-08T09:51:16;8.50;;;3.40;;
46717;SDS011;32448;44.960;-0.698;2024-03-08T09:53:44;6.93;;;3.40;;
46717;SDS011;32448;44.960;-0.698;2024-03-08T09:56:12;6.10;;;3.20;;
46717;SDS011;32448;44.960;-0.698;2024-03-08T09:58:39;8.30;;;3.67;;
46717;SDS011;32448;44.960;-0.698;2024-03-08T10:01:24;7.63;;;3.40;;
46717;SDS011;32448;44.960;-0.698;2024-03-08T10:03:53;7.15;;;2.97;;
46717;SDS011;32448;44.960;-0.698;2024-03-08T10:06:24;6.55;;;3.05;;
46717;SDS011;32448;44.960;-0.698;2024-03-08T10:08:51;4.43;;;2.95;;
46717;SDS011;32448;44.960;-0.698;2024-03-08T10:11:18;6.65;;;3.08;;
46717;SDS011;32448;44.960;-0.698;2024-03-08T10:13:46;5.15;;;3.00;;
46717;SDS011;32448;44.960;-0.698;2024-03-08T10:16:14;3.22;;;2.60;;
46717;SDS011;32448;44.960;-0.698;2024-03-08T10:18:44;5.35;;;2.60;;
46717;SDS011;32448;44.960;-0.698;2024-03-08T10:21:12;4.30;;;2.47;;
46717;SDS011;32448;44.960;-0.698;2024-03-08T10:23:41;7.72;;;2.80;;
46717;SDS011;32448;44.960;-0.698;2024-03-08T10:26:10;4.97;;;2.47;;
46717;SDS011;32448;44.960;-0.698;2024-03-08T10:28:42;4.05;;;2.30;;
46717;SDS011;32448;44.960;-0.698;2024-03-08T10:31:10;3.20;;;2.08;;
46717;SDS011;32448;44.960;-0.698;2024-03-08T10:33:39;5.55;;;2.55;;
46717;SDS011;32448;44.960;-0.698;2024-03-08T10:36:09;8.30;;;2.70;;
46717;SDS011;32448;44.960;-0.698;2024-03-08T10:38:37;6.47;;;2.50;;
46717;SDS011;32448;44.960;-0.698;2024-03-08T10:41:06;4.88;;;2.45;;
46717;SDS011;32448;44.960;-0.698;2024-03-08T10:43:52;5.18;;;3.03;;
46717;SDS011;32448;44.960;-0.698;2024-03-08T10:49:30;5.40;;;1.90;;
46717;SDS011;32448;44.960;-0.698;2024-03-08T10:52:20;6.30;;;2.10;;
46717;SDS011;32448;44.960;-0.698;2024-03-08T10:54:48;5.18;;;2.38;;
46717;SDS011;32448;44.960;-0.698;2024-03-08T10:57:17;3.90;;;2.10;;
46717;SDS011;32448;44.960;-0.698;2024-03-08T10:59:48;6.78;;;2.30;;
46717;SDS011;32448;44.960;-0.698;2024-03-08T11:02:22;3.95;;;2.08;;
46717;SDS011;32448;44.960;-0.698;2024-03-08T11:04:50;5.90;;;1.80;;
46717;SDS011;32448;44.960;-0.698;2024-03-08T11:07:17;6.35;;;2.95;;
46717;SDS011;32448;44.960;-0.698;2024-03-08T11:09:49;5.07;;;2.55;;
46717;SDS011;32448;44.960;-0.698;2024-03-08T11:14:48;4.82;;;1.70;;
46717;SDS011;32448;44.960;-0.698;2024-03-08T11:17:18;4.60;;;1.92;;
46717;SDS011;32448;44.960;-0.698;2024-03-08T11:19:49;4.75;;;1.80;;
46717;SDS011;32448;44.960;-0.698;2024-03-08T11:22:22;4.60;;;2.15;;
46717;SDS011;32448;44.960;-0.698;2024-03-08T11:24:53;4.75;;;2.30;;
46717;SDS011;32448;44.960;-0.698;2024-03-08T11:27:29;4.95;;;2.20;;
46717;SDS011;32448;44.960;-0.698;2024-03-08T11:30:04;4.55;;;2.20;;
46717;SDS011;32448;44.960;-0.698;2024-03-08T11:32:44;3.83;;;2.00;;
46717;SDS011;32448;44.960;-0.698;2024-03-08T11:35:22;4.50;;;1.90;;
46717;SDS011;32448;44.960;-0.698;2024-03-08T11:37:50;3.65;;;2.20;;
46717;SDS011;32448;44.960;-0.698;2024-03-08T11:40:17;3.97;;;2.03;;
46717;SDS011;32448;44.960;-0.698;2024-03-08T11:42:46;5.55;;;2.40;;
46717;SDS011;32448;44.960;-0.698;2024-03-08T11:45:15;5.47;;;2.35;;
46717;SDS011;32448;44.960;-0.698;2024-03-08T11:47:44;7.40;;;2.60;;
46717;SDS011;32448;44.960;-0.698;2024-03-08T11:50:16;5.23;;;3.07;;
46717;SDS011;32448;44.960;-0.698;2024-03-08T11:52:46;4.38;;;2.90;;
46717;SDS011;32448;44.960;-0.698;2024-03-08T11:55:13;6.85;;;3.80;;
46717;SDS011;32448;44.960;-0.698;2024-03-08T11:57:40;5.47;;;3.65;;
46717;SDS011;32448;44.960;-0.698;2024-03-08T12:00:14;6.43;;;3.25;;
46717;SDS011;32448;44.960;-0.698;2024-03-08T12:03:04;6.57;;;2.85;;
46717;SDS011;32448;44.960;-0.698;2024-03-08T12:05:33;4.10;;;2.25;;
46717;SDS011;32448;44.960;-0.698;2024-03-08T12:08:00;4.97;;;2.60;;
46717;SDS011;32448;44.960;-0.698;2024-03-08T12:10:28;5.38;;;2.70;;
46717;SDS011;32448;44.960;-0.698;2024-03-08T12:12:57;3.65;;;2.28;;
46717;SDS011;32448;44.960;-0.698;2024-03-08T12:15:30;4.57;;;2.42;;
46717;SDS011;32448;44.960;-0.698;2024-03-08T12:18:00;4.18;;;2.47;;
46717;SDS011;32448;44.960;-0.698;2024-03-08T12:20:28;5.32;;;2.22;;
46717;SDS011;32448;44.960;-0.698;2024-03-08T12:22:58;4.85;;;2.22;;
46717;SDS011;32448;44.960;-0.698;2024-03-08T12:25:35;5.75;;;2.05;;
46717;SDS011;32448;44.960;-0.698;2024-03-08T12:28:09;4.38;;;2.42;;
46717;SDS011;32448;44.960;-0.698;2024-03-08T12:30:48;7.28;;;2.58;;
46717;SDS011;32448;44.960;-0.698;2024-03-08T12:33:17;4.57;;;2.28;;
46717;SDS011;32448;44.960;-0.698;2024-03-08T12:35:54;4.72;;;2.50;;
46717;SDS011;32448;44.960;-0.698;2024-03-08T12:38:23;4.70;;;2.65;;
46717;SDS011;32448;44.960;-0.698;2024-03-08T12:40:59;4.65;;;2.40;;
46717;SDS011;32448;44.960;-0.698;2024-03-08T12:43:27;3.67;;;2.40;;
46717;SDS011;32448;44.960;-0.698;2024-03-08T12:45:58;3.20;;;2.10;;
46717;SDS011;32448;44.960;-0.698;2024-03-08T12:48:25;3.38;;;2.03;;
46717;SDS011;32448;44.960;-0.698;2024-03-08T12:50:52;3.28;;;1.80;;
46717;SDS011;32448;44.960;-0.698;2024-03-08T12:53:21;4.55;;;2.60;;
46717;SDS011;32448;44.960;-0.698;2024-03-08T12:55:49;2.90;;;1.60;;
46717;SDS011;32448;44.960;-0.698;2024-03-08T12:58:17;3.33;;;1.73;;
46717;SDS011;32448;44.960;-0.698;2024-03-08T13:00:44;3.03;;;1.83;;
46717;SDS011;32448;44.960;-0.698;2024-03-08T13:03:10;2.90;;;2.03;;
46717;SDS011;32448;44.960;-0.698;2024-03-08T13:05:38;4.60;;;1.92;;
46717;SDS011;32448;44.960;-0.698;2024-03-08T13:08:09;7.80;;;1.83;;
46717;SDS011;32448;44.960;-0.698;2024-03-08T13:10:40;4.80;;;1.92;;
46717;SDS011;32448;44.960;-0.698;2024-03-08T13:13:10;4.20;;;1.65;;
46717;SDS011;32448;44.960;-0.698;2024-03-08T13:15:45;3.47;;;1.95;;
46717;SDS011;32448;44.960;-0.698;2024-03-08T13:18:12;4.20;;;1.90;;
46717;SDS011;32448;44.960;-0.698;2024-03-08T13:20:39;6.20;;;2.20;;
46717;SDS011;32448;44.960;-0.698;2024-03-08T13:23:13;3.88;;;1.80;;
46717;SDS011;32448;44.960;-0.698;2024-03-08T13:25:40;3.03;;;1.63;;
46717;SDS011;32448;44.960;-0.698;2024-03-08T13:28:08;4.07;;;1.88;;
46717;SDS011;32448;44.960;-0.698;2024-03-08T13:30:35;2.67;;;1.65;;
46717;SDS011;32448;44.960;-0.698;2024-03-08T13:33:02;3.33;;;1.88;;
46717;SDS011;32448;44.960;-0.698;2024-03-08T13:35:31;4.13;;;1.58;;
46717;SDS011;32448;44.960;-0.698;2024-03-08T13:37:59;5.30;;;1.83;;
46717;SDS011;32448;44.960;-0.698;2024-03-08T13:40:28;3.28;;;1.45;;
46717;SDS011;32448;44.960;-0.698;2024-03-08T13:42:55;3.38;;;1.60;;
46717;SDS011;32448;44.960;-0.698;2024-03-08T13:45:22;4.43;;;2.05;;
46717;SDS011;32448;44.960;-0.698;2024-03-08T13:47:51;3.55;;;1.60;;
46717;SDS011;32448;44.960;-0.698;2024-03-08T13:50:18;9.63;;;3.53;;
46717;SDS011;32448;44.960;-0.698;2024-03-08T13:52:48;6.45;;;2.72;;
46717;SDS011;32448;44.960;-0.698;2024-03-08T13:55:23;5.00;;;2.00;;
46717;SDS011;32448;44.960;-0.698;2024-03-08T13:57:53;4.50;;;1.85;;
46717;SDS011;32448;44.960;-0.698;2024-03-08T14:00:20;4.05;;;2.05;;
46717;SDS011;32448;44.960;-0.698;2024-03-08T14:02:49;5.25;;;2.00;;
46717;SDS011;32448;44.960;-0.698;2024-03-08T14:05:16;3.70;;;1.63;;
46717;SDS011;32448;44.960;-0.698;2024-03-08T14:07:45;4.28;;;2.00;;
46717;SDS011;32448;44.960;-0.698;2024-03-08T14:10:15;3.08;;;1.80;;
46717;SDS011;32448;44.960;-0.698;2024-03-08T14:12:46;3.58;;;1.50;;
46717;SDS011;32448;44.960;-0.698;2024-03-08T14:15:16;3.53;;;1.52;;
46717;SDS011;32448;44.960;-0.698;2024-03-08T14:17:43;2.72;;;1.55;;
46717;SDS011;32448;44.960;-0.698;2024-03-08T14:20:14;2.72;;;1.60;;
46717;SDS011;32448;44.960;-0.698;2024-03-08T14:22:41;3.03;;;1.55;;
46717;SDS011;32448;44.960;-0.698;2024-03-08T14:25:07;3.08;;;1.80;;
46717;SDS011;32448;44.960;-0.698;2024-03-08T14:27:44;3.70;;;1.73;;
46717;SDS011;32448;44.960;-0.698;2024-03-08T14:30:14;15.73;;;4.22;;
46717;SDS011;32448;44.960;-0.698;2024-03-08T14:32:58;4.82;;;1.80;;
46717;SDS011;32448;44.960;-0.698;2024-03-08T14:35:29;3.33;;;1.58;;
46717;SDS011;32448;44.960;-0.698;2024-03-08T14:37:56;4.75;;;1.58;;
46717;SDS011;32448;44.960;-0.698;2024-03-08T14:40:24;2.97;;;1.38;;
46717;SDS011;32448;44.960;-0.698;2024-03-08T14:42:52;3.92;;;1.58;;
46717;SDS011;32448;44.960;-0.698;2024-03-08T14:45:19;5.45;;;1.88;;
46717;SDS011;32448;44.960;-0.698;2024-03-08T14:47:47;3.83;;;1.60;;
46717;SDS011;32448;44.960;-0.698;2024-03-08T14:50:18;3.88;;;1.40;;
46717;SDS011;32448;44.960;-0.698;2024-03-08T14:52:50;4.95;;;2.33;;